Akron, Colorado
Current Conditions -  °F | °C
As of 10:53 PM on Thursday 27 Nov 2014 (Local Time) from KAKO Reporting Station
Clear Clear  
Wind Chill: 30°   Ceiling: Unl
Heat Index: 38°   Visibility: 10mi
Dew Point: 25°   Wind: 12mph
Humidity: 60%   Direction: 220°SW
Pressure: 30.04"   Gusts: NA
Location:  40.16°N, 103.21°W
Report Text: KAKO 280553Z AUTO 22010KT 10SM CLR 03/M04 A3004 RMK AO2 SLP170 T00331039 10083 20033 58006
Loading
Personal Weather Stations






























Interactive Weather Map New forecast layout! Learn more

10-Day Weather Forecast

Advertisements
Track Severe Weather on mobile